createdAt,value
2018-04-24T00:00:14.152Z,1009.74
2018-04-24T00:00:40.313Z,1009.73
2018-04-24T00:01:06.427Z,1009.74
2018-04-24T00:01:32.575Z,1009.72
2018-04-24T00:02:04.977Z,1009.72
2018-04-24T00:02:31.117Z,1009.75
2018-04-24T00:02:57.261Z,1009.75
2018-04-24T00:03:23.401Z,1009.73
2018-04-24T00:03:49.542Z,1009.74
2018-04-24T00:04:15.677Z,1009.73
2018-04-24T00:04:41.821Z,1009.76
2018-04-24T00:05:07.989Z,1009.72
2018-04-24T00:05:34.184Z,1009.75
2018-04-24T00:06:00.315Z,1009.78
2018-04-24T00:06:26.475Z,1009.72
2018-04-24T00:06:52.631Z,1009.76
2018-04-24T00:07:18.776Z,1009.77
2018-04-24T00:07:44.934Z,1009.8
2018-04-24T00:08:11.096Z,1009.79
2018-04-24T00:08:37.259Z,1009.78
2018-04-24T00:09:03.397Z,1009.81
2018-04-24T00:09:29.538Z,1009.76
2018-04-24T00:09:55.711Z,1009.8
2018-04-24T00:10:21.818Z,1009.83
2018-04-24T00:10:47.972Z,1009.83
2018-04-24T00:11:14.107Z,1009.81
2018-04-24T00:11:40.238Z,1009.85
2018-04-24T00:12:06.392Z,1009.84
2018-04-24T00:12:32.532Z,1009.84
2018-04-24T00:12:58.679Z,1009.85
2018-04-24T00:13:24.811Z,1009.84
2018-04-24T00:13:50.972Z,1009.86
2018-04-24T00:14:17.111Z,1009.86
2018-04-24T00:14:43.250Z,1009.92
2018-04-24T00:15:09.389Z,1009.86
2018-04-24T00:15:35.529Z,1009.88
2018-04-24T00:16:01.666Z,1009.91
2018-04-24T00:16:27.808Z,1009.84
2018-04-24T00:16:53.973Z,1009.86
2018-04-24T00:17:20.141Z,1009.87
2018-04-24T00:17:46.286Z,1009.85
2018-04-24T00:18:12.505Z,1009.85
2018-04-24T00:18:38.562Z,1009.84
2018-04-24T00:19:04.727Z,1009.83
2018-04-24T00:19:30.869Z,1009.83
2018-04-24T00:19:57.009Z,1009.82
2018-04-24T00:20:23.145Z,1009.79
2018-04-24T00:20:49.283Z,1009.74
2018-04-24T00:21:15.433Z,1009.71
2018-04-24T00:21:41.567Z,1009.73
2018-04-24T00:22:07.711Z,1009.7
2018-04-24T00:22:33.846Z,1009.72
2018-04-24T00:22:59.989Z,1009.71
2018-04-24T00:23:26.149Z,1009.71
2018-04-24T00:23:52.342Z,1009.7
2018-04-24T00:24:18.481Z,1009.66
2018-04-24T00:24:44.624Z,1009.58
2018-04-24T00:25:10.761Z,1009.63
2018-04-24T00:25:36.906Z,1009.65
2018-04-24T00:26:03.066Z,1009.59
2018-04-24T00:26:29.223Z,1009.59
2018-04-24T00:26:55.361Z,1009.56
2018-04-24T00:27:21.525Z,1009.56
2018-04-24T00:27:47.694Z,1009.53
2018-04-24T00:28:13.833Z,1009.55
2018-04-24T00:28:39.993Z,1009.52
2018-04-24T00:29:06.188Z,1009.53
2018-04-24T00:29:32.324Z,1009.53
2018-04-24T00:29:58.461Z,1009.52
2018-04-24T00:30:24.604Z,1009.56
2018-04-24T00:30:50.739Z,1009.58
2018-04-24T00:31:16.875Z,1009.53
2018-04-24T00:31:43.011Z,1009.58
2018-04-24T00:32:09.150Z,1009.59
2018-04-24T00:32:35.307Z,1009.63
2018-04-24T00:33:01.448Z,1009.61
2018-04-24T00:33:27.612Z,1009.6
2018-04-24T00:33:53.756Z,1009.63
2018-04-24T00:34:19.950Z,1009.63
2018-04-24T00:34:46.083Z,1009.65
2018-04-24T00:35:12.229Z,1009.6
2018-04-24T00:35:38.386Z,1009.65
2018-04-24T00:36:04.535Z,1009.63
2018-04-24T00:36:30.679Z,1009.64
2018-04-24T00:36:56.819Z,1009.61
2018-04-24T00:37:22.954Z,1009.6
2018-04-24T00:37:49.087Z,1009.63
2018-04-24T00:38:15.230Z,1009.66
2018-04-24T00:38:41.396Z,1009.64
2018-04-24T00:39:07.556Z,1009.65
2018-04-24T00:39:33.699Z,1009.62
2018-04-24T00:39:59.833Z,1009.62
2018-04-24T00:40:25.973Z,1009.66
2018-04-24T00:40:52.112Z,1009.6
2018-04-24T00:41:18.248Z,1009.6
2018-04-24T00:41:44.421Z,1009.58
2018-04-24T00:42:10.612Z,1009.54
2018-04-24T00:42:36.754Z,1009.55
2018-04-24T00:43:02.885Z,1009.52
2018-04-24T00:43:29.028Z,1009.53
2018-04-24T00:43:55.183Z,1009.47
2018-04-24T00:44:21.312Z,1009.46
2018-04-24T00:44:47.472Z,1009.45
2018-04-24T00:45:13.609Z,1009.44
2018-04-24T00:45:39.746Z,1009.41
2018-04-24T00:46:05.884Z,1009.4
2018-04-24T00:46:32.049Z,1009.38
2018-04-24T00:46:58.189Z,1009.4
2018-04-24T00:47:24.322Z,1009.34
2018-04-24T00:47:50.459Z,1009.37
2018-04-24T00:48:16.597Z,1009.35
2018-04-24T00:48:42.740Z,1009.35
2018-04-24T00:49:08.879Z,1009.31
2018-04-24T00:49:35.021Z,1009.31
2018-04-24T00:50:01.162Z,1009.26
2018-04-24T00:50:27.325Z,1009.3
2018-04-24T00:50:53.494Z,1009.29
2018-04-24T00:51:19.639Z,1009.22
2018-04-24T00:51:45.806Z,1009.27
2018-04-24T00:52:11.938Z,1009.22
2018-04-24T00:52:38.082Z,1009.23
2018-04-24T00:53:04.224Z,1009.2
2018-04-24T00:53:30.390Z,1009.16
2018-04-24T00:53:56.556Z,1009.16
2018-04-24T00:54:22.686Z,1009.16
2018-04-24T00:54:48.828Z,1009.12
2018-04-24T00:55:14.966Z,1009.16
2018-04-24T00:55:41.104Z,1009.17
2018-04-24T00:56:07.241Z,1009.22
2018-04-24T00:56:33.388Z,1009.22
2018-04-24T00:56:59.549Z,1009.22
2018-04-24T00:57:25.743Z,1009.22
2018-04-24T00:57:51.879Z,1009.24
2018-04-24T00:58:18.018Z,1009.26
2018-04-24T00:58:44.178Z,1009.25
2018-04-24T00:59:10.326Z,1009.21
2018-04-24T00:59:36.465Z,1009.23
2018-04-24T01:00:02.602Z,1009.19
2018-04-24T01:00:28.768Z,1009.2
2018-04-24T01:00:54.867Z,1009.22
2018-04-24T01:01:21.036Z,1009.23
2018-04-24T01:01:47.203Z,1009.22
2018-04-24T01:02:13.337Z,1009.25
2018-04-24T01:02:39.505Z,1009.24
2018-04-24T01:03:05.636Z,1009.23
2018-04-24T01:03:31.780Z,1009.17
2018-04-24T01:03:57.909Z,1009.22
2018-04-24T01:04:24.054Z,1009.21
2018-04-24T01:04:50.190Z,1009.22
2018-04-24T01:05:16.356Z,1009.19
2018-04-24T01:05:42.498Z,1009.2
2018-04-24T01:06:08.630Z,1009.18
2018-04-24T01:06:34.771Z,1009.2
2018-04-24T01:07:00.936Z,1009.23
2018-04-24T01:07:27.069Z,1009.26
2018-04-24T01:07:53.254Z,1009.19
2018-04-24T01:08:19.395Z,1009.23
2018-04-24T01:08:45.544Z,1009.28
2018-04-24T01:09:11.672Z,1009.23
2018-04-24T01:09:37.807Z,1009.15
2018-04-24T01:10:03.943Z,1009.21
2018-04-24T01:10:30.082Z,1009.2
2018-04-24T01:10:56.224Z,1009.24
2018-04-24T01:11:22.359Z,1009.2
2018-04-24T01:11:48.497Z,1009.2
2018-04-24T01:12:14.631Z,1009.18
2018-04-24T01:12:40.775Z,1009.2
2018-04-24T01:13:06.908Z,1009.21
2018-04-24T01:13:33.045Z,1009.22
2018-04-24T01:13:59.187Z,1009.16
2018-04-24T01:14:25.324Z,1009.2
2018-04-24T01:14:51.486Z,1009.18
2018-04-24T01:15:17.680Z,1009.15
2018-04-24T01:15:43.820Z,1009.13
2018-04-24T01:16:09.955Z,1009.15
2018-04-24T01:16:36.096Z,1009.14
2018-04-24T01:17:02.242Z,1009.13
2018-04-24T01:17:28.376Z,1009.15
2018-04-24T01:17:54.509Z,1009.16
2018-04-24T01:18:20.653Z,1009.2
2018-04-24T01:18:46.792Z,1009.23
2018-04-24T01:19:12.934Z,1009.22
2018-04-24T01:19:39.070Z,1009.21
2018-04-24T01:20:05.218Z,1009.15
2018-04-24T01:20:31.374Z,1009.21
2018-04-24T01:20:57.512Z,1009.19
2018-04-24T01:21:23.655Z,1009.19
2018-04-24T01:21:49.793Z,1009.14
2018-04-24T01:22:15.928Z,1009.17
2018-04-24T01:22:42.066Z,1009.12
2018-04-24T01:23:08.204Z,1009.2
2018-04-24T01:23:34.347Z,1009.2
2018-04-24T01:24:00.489Z,1009.2
2018-04-24T01:24:26.629Z,1009.19
2018-04-24T01:24:52.763Z,1009.16
2018-04-24T01:25:18.906Z,1009.13
2018-04-24T01:25:45.053Z,1009.18
2018-04-24T01:26:11.188Z,1009.15
2018-04-24T01:26:37.329Z,1009.22
2018-04-24T01:27:03.463Z,1009.25
2018-04-24T01:27:29.604Z,1009.22
2018-04-24T01:27:55.747Z,1009.16
2018-04-24T01:28:21.884Z,1009.18
2018-04-24T01:28:48.030Z,1009.23
2018-04-24T01:29:14.191Z,1009.19
2018-04-24T01:29:40.326Z,1009.21
2018-04-24T01:30:06.472Z,1009.19
2018-04-24T01:30:32.612Z,1009.24
2018-04-24T01:30:58.751Z,1009.25
2018-04-24T01:31:24.885Z,1009.25
2018-04-24T01:31:51.026Z,1009.21
2018-04-24T01:32:17.213Z,1009.27
2018-04-24T01:32:43.351Z,1009.19
2018-04-24T01:33:09.514Z,1009.15
2018-04-24T01:33:35.681Z,1009.16
2018-04-24T01:34:01.814Z,1009.16
2018-04-24T01:34:27.973Z,1009.15
2018-04-24T01:34:54.141Z,1009.22
2018-04-24T01:35:20.274Z,1009.18
2018-04-24T01:35:46.417Z,1009.11
2018-04-24T01:36:12.549Z,1009.13
2018-04-24T01:36:38.691Z,1009.14
2018-04-24T01:37:04.842Z,1009.16
2018-04-24T01:37:30.970Z,1009.11
2018-04-24T01:37:57.107Z,1009.16
2018-04-24T01:38:23.252Z,1009.16
2018-04-24T01:38:49.392Z,1009.18
2018-04-24T01:39:15.530Z,1009.17
2018-04-24T01:39:41.691Z,1009.15
2018-04-24T01:40:07.830Z,1009.12
2018-04-24T01:40:33.966Z,1009.18
2018-04-24T01:41:00.103Z,1009.09
2018-04-24T01:41:26.267Z,1009.15
2018-04-24T01:41:52.408Z,1009.09
2018-04-24T01:42:18.543Z,1009.1
2018-04-24T01:42:44.681Z,1009.1
2018-04-24T01:43:10.820Z,1009.11
2018-04-24T01:43:36.961Z,1009.08
2018-04-24T01:44:03.125Z,1009.14
2018-04-24T01:44:29.263Z,1009.1
2018-04-24T01:44:55.406Z,1009.07
2018-04-24T01:45:21.569Z,1009.08
2018-04-24T01:45:47.712Z,1009.03
2018-04-24T01:46:13.882Z,1009.08
2018-04-24T01:46:40.021Z,1009.1
2018-04-24T01:47:06.161Z,1009.1
2018-04-24T01:47:32.301Z,1009.14
2018-04-24T01:47:58.434Z,1009.16
2018-04-24T01:48:24.569Z,1009.1
2018-04-24T01:48:50.730Z,1009.11
2018-04-24T01:49:16.858Z,1009.08
2018-04-24T01:49:42.997Z,1009.06
2018-04-24T01:50:09.164Z,1009.03
2018-04-24T01:50:35.343Z,1008.99
2018-04-24T01:51:01.484Z,1008.99
2018-04-24T01:51:27.619Z,1009.02
2018-04-24T01:51:53.761Z,1009.03
2018-04-24T01:52:19.923Z,1009
2018-04-24T01:52:46.066Z,1008.98
2018-04-24T01:53:12.206Z,1009.02
2018-04-24T01:53:38.364Z,1009.04
2018-04-24T01:54:04.531Z,1009.02
2018-04-24T01:54:30.674Z,1009.03
2018-04-24T01:54:56.813Z,1009.02
2018-04-24T01:55:22.947Z,1009.02
2018-04-24T01:55:49.088Z,1009.01
2018-04-24T01:56:15.235Z,1009.05
2018-04-24T01:56:41.395Z,1009.04
2018-04-24T01:57:07.543Z,1009.07
2018-04-24T01:57:33.713Z,1009.08
2018-04-24T01:57:59.855Z,1009.12
2018-04-24T01:58:26.016Z,1009.09
2018-04-24T01:58:52.181Z,1009.06
2018-04-24T01:59:18.321Z,1009.07
2018-04-24T01:59:44.461Z,1009.07
2018-04-24T02:00:10.604Z,1009.08
2018-04-24T02:00:36.765Z,1009.1
2018-04-24T02:01:02.902Z,1009.09
2018-04-24T02:01:29.033Z,1009.09
2018-04-24T02:01:55.176Z,1009.07
2018-04-24T02:02:21.316Z,1009.15
2018-04-24T02:02:47.451Z,1009.12
2018-04-24T02:03:13.588Z,1009.12
2018-04-24T02:03:39.728Z,1009.13
2018-04-24T02:04:05.919Z,1009.13
2018-04-24T02:04:32.057Z,1009.12
2018-04-24T02:04:58.195Z,1009.11
2018-04-24T02:05:24.331Z,1009.23
2018-04-24T02:05:50.505Z,1009.09
2018-04-24T02:06:16.638Z,1009.13
2018-04-24T02:06:42.802Z,1009.11
2018-04-24T02:07:08.939Z,1009.06
2018-04-24T02:07:35.101Z,1009.13
2018-04-24T02:08:01.247Z,1009.05
2018-04-24T02:08:27.406Z,1009.05
2018-04-24T02:08:53.549Z,1009.01
2018-04-24T02:09:19.690Z,1009.01
2018-04-24T02:09:45.828Z,1009.01
2018-04-24T02:10:11.960Z,1009.01
2018-04-24T02:10:38.131Z,1009.01
2018-04-24T02:11:04.268Z,1009.05
2018-04-24T02:11:30.437Z,1009.02
2018-04-24T02:11:56.572Z,1009.09
2018-04-24T02:12:22.710Z,1009.03
2018-04-24T02:12:48.849Z,1009.02
2018-04-24T02:13:15.011Z,1009.06
2018-04-24T02:13:41.143Z,1009.03
2018-04-24T02:14:07.341Z,1009.08
2018-04-24T02:14:33.480Z,1009.05
2018-04-24T02:14:59.619Z,1009.04
2018-04-24T02:15:25.763Z,1009.08
2018-04-24T02:15:51.942Z,1009.03
2018-04-24T02:16:18.112Z,1009.08
2018-04-24T02:16:44.271Z,1009.05
2018-04-24T02:17:10.464Z,1009.02
2018-04-24T02:17:36.627Z,1009.05
2018-04-24T02:18:02.771Z,1008.99
2018-04-24T02:18:28.905Z,1009.03
2018-04-24T02:18:55.053Z,1009.03
2018-04-24T02:19:21.190Z,1009.01
2018-04-24T02:19:47.353Z,1009.12
2018-04-24T02:20:13.513Z,1008.98
2018-04-24T02:20:39.653Z,1008.91
2018-04-24T02:21:05.796Z,1008.97
2018-04-24T02:21:31.963Z,1008.98
2018-04-24T02:21:58.100Z,1008.93
2018-04-24T02:22:24.268Z,1008.92
2018-04-24T02:22:50.447Z,1008.94
2018-04-24T02:23:16.585Z,1008.92
2018-04-24T02:23:42.729Z,1009
2018-04-24T02:24:08.886Z,1008.96
2018-04-24T02:24:35.030Z,1009.01
2018-04-24T02:25:01.200Z,1009
2018-04-24T02:25:27.330Z,1008.82
2018-04-24T02:25:53.503Z,1009.04
2018-04-24T02:26:19.644Z,1009.03
2018-04-24T02:26:45.786Z,1009.11
2018-04-24T02:27:11.920Z,1009.01
2018-04-24T02:27:38.064Z,1009.1
2018-04-24T02:28:04.228Z,1009.1
2018-04-24T02:28:30.375Z,1009.05
2018-04-24T02:28:56.512Z,1009.07
2018-04-24T02:29:22.645Z,1009.07
2018-04-24T02:29:48.784Z,1009.05
2018-04-24T02:30:14.926Z,1009
2018-04-24T02:30:41.091Z,1008.97
2018-04-24T02:31:07.259Z,1008.98
2018-04-24T02:31:33.428Z,1009
2018-04-24T02:31:59.565Z,1009.06
2018-04-24T02:32:25.707Z,1009.14
2018-04-24T02:32:51.845Z,1009.05
2018-04-24T02:33:18.037Z,1009.07
2018-04-24T02:33:44.196Z,1008.99
2018-04-24T02:34:10.338Z,1009.11
2018-04-24T02:34:36.472Z,1008.93
2018-04-24T02:35:02.641Z,1009.02
2018-04-24T02:35:28.853Z,1009.06
2018-04-24T02:35:54.991Z,1009.07
2018-04-24T02:36:21.169Z,1009.07
2018-04-24T02:36:47.356Z,1009.09
2018-04-24T02:37:13.474Z,1009.07
2018-04-24T02:37:39.653Z,1009.06
2018-04-24T02:38:05.803Z,1009.13
2018-04-24T02:38:32.004Z,1009.06
2018-04-24T02:38:58.197Z,1009.14
2018-04-24T02:39:24.332Z,1009.12
2018-04-24T02:39:50.470Z,1009.07
2018-04-24T02:40:16.708Z,1009.17
2018-04-24T02:40:42.777Z,1009.14
2018-04-24T02:41:08.914Z,1009.22
2018-04-24T02:41:35.058Z,1009.15
2018-04-24T02:42:01.193Z,1009.16
2018-04-24T02:42:27.355Z,1009.19
2018-04-24T02:42:53.498Z,1009.2
2018-04-24T02:43:19.694Z,1009.18
2018-04-24T02:43:45.822Z,1009.16
2018-04-24T02:44:12.020Z,1009.17
2018-04-24T02:44:38.150Z,1009.17
2018-04-24T02:45:04.301Z,1009.13
2018-04-24T02:45:30.437Z,1009.16
2018-04-24T02:45:56.600Z,1009.14
2018-04-24T02:46:22.745Z,1009.12
2018-04-24T02:46:48.881Z,1009.18
2018-04-24T02:47:15.047Z,1009.16
2018-04-24T02:47:41.213Z,1009.11
2018-04-24T02:48:07.366Z,1009.1
2018-04-24T02:48:33.523Z,1009.1
2018-04-24T02:48:59.662Z,1009.05
2018-04-24T02:49:25.825Z,1009.11
2018-04-24T02:49:51.982Z,1009.07
2018-04-24T02:50:18.142Z,1008.97
2018-04-24T02:50:44.310Z,1009.02
2018-04-24T02:51:10.482Z,1008.95
2018-04-24T02:51:36.640Z,1008.9
2018-04-24T02:52:02.783Z,1008.91
2018-04-24T02:52:28.956Z,1008.91
2018-04-24T02:52:55.098Z,1008.81
2018-04-24T02:53:21.301Z,1008.83
2018-04-24T02:53:47.493Z,1008.8
2018-04-24T02:54:13.700Z,1008.89
2018-04-24T02:54:39.838Z,1008.85
2018-04-24T02:55:06.005Z,1008.89
2018-04-24T02:55:32.235Z,1008.87
2018-04-24T02:55:58.378Z,1008.94
2018-04-24T02:56:24.525Z,1008.92
2018-04-24T02:56:50.668Z,1008.84
2018-04-24T02:57:16.800Z,1008.86
2018-04-24T02:57:42.939Z,1008.83
2018-04-24T02:58:09.105Z,1008.88
2018-04-24T02:58:35.241Z,1008.87
2018-04-24T02:59:01.381Z,1008.82
2018-04-24T02:59:27.537Z,1008.89
2018-04-24T02:59:53.704Z,1008.74
2018-04-24T03:00:19.847Z,1008.79
2018-04-24T03:00:46.045Z,1008.78
2018-04-24T03:01:12.187Z,1008.82
2018-04-24T03:01:38.349Z,1008.83
2018-04-24T03:02:04.483Z,1008.82
2018-04-24T03:02:30.681Z,1008.79
2018-04-24T03:02:56.843Z,1008.8
2018-04-24T03:03:23.001Z,1008.84
2018-04-24T03:03:49.168Z,1008.84
2018-04-24T03:04:15.333Z,1008.87
2018-04-24T03:04:41.493Z,1008.92
2018-04-24T03:05:07.627Z,1008.93
2018-04-24T03:05:33.774Z,1008.9
2018-04-24T03:05:59.930Z,1009.01
2018-04-24T03:06:26.098Z,1009.02
2018-04-24T03:06:52.234Z,1008.99
2018-04-24T03:07:18.404Z,1008.97
2018-04-24T03:07:44.607Z,1008.99
2018-04-24T03:08:10.754Z,1008.94
2018-04-24T03:08:36.915Z,1008.97
2018-04-24T03:09:03.052Z,1008.91
2018-04-24T03:09:29.265Z,1008.89
2018-04-24T03:09:55.412Z,1008.91
2018-04-24T03:10:21.548Z,1008.86
2018-04-24T03:10:47.714Z,1008.76
2018-04-24T03:11:13.847Z,1008.77
2018-04-24T03:11:40.019Z,1008.79
2018-04-24T03:12:06.189Z,1008.76
2018-04-24T03:12:32.343Z,1008.71
2018-04-24T03:12:58.487Z,1008.72
2018-04-24T03:13:24.647Z,1008.64
2018-04-24T03:13:50.851Z,1008.68
2018-04-24T03:14:17.023Z,1008.69
2018-04-24T03:14:43.206Z,1008.73
2018-04-24T03:15:09.346Z,1008.74
2018-04-24T03:15:35.509Z,1008.73
2018-04-24T03:16:01.661Z,1008.69
2018-04-24T03:16:27.810Z,1008.71
2018-04-24T03:16:53.947Z,1008.72
2018-04-24T03:17:20.082Z,1008.71
2018-04-24T03:17:46.220Z,1008.75
2018-04-24T03:18:12.361Z,1008.67
2018-04-24T03:18:38.499Z,1008.69
2018-04-24T03:19:04.634Z,1008.74
2018-04-24T03:19:30.793Z,1008.67
2018-04-24T03:19:56.956Z,1008.67
2018-04-24T03:20:23.095Z,1008.76
2018-04-24T03:20:49.236Z,1008.69
2018-04-24T03:21:15.395Z,1008.72
2018-04-24T03:21:41.537Z,1008.74
2018-04-24T03:22:07.680Z,1008.75
2018-04-24T03:22:33.822Z,1008.75
2018-04-24T03:22:59.957Z,1008.75
2018-04-24T03:23:26.101Z,1008.78
2018-04-24T03:23:52.235Z,1008.8
2018-04-24T03:24:18.381Z,1008.82
2018-04-24T03:24:44.543Z,1008.79
2018-04-24T03:25:10.679Z,1008.81
2018-04-24T03:25:36.813Z,1008.83
2018-04-24T03:26:02.952Z,1008.86
2018-04-24T03:26:29.087Z,1008.9
2018-04-24T03:26:55.233Z,1008.88
2018-04-24T03:27:21.393Z,1008.91
2018-04-24T03:27:47.524Z,1008.85
2018-04-24T03:28:13.690Z,1008.84
2018-04-24T03:28:39.853Z,1008.87
2018-04-24T03:29:06.016Z,1008.93
2018-04-24T03:29:32.155Z,1008.88
2018-04-24T03:29:58.297Z,1008.87
2018-04-24T03:30:24.452Z,1008.86
2018-04-24T03:30:50.593Z,1008.9
2018-04-24T03:31:16.789Z,1008.9
2018-04-24T03:31:42.954Z,1008.82
2018-04-24T03:32:09.092Z,1008.88
2018-04-24T03:32:35.260Z,1008.88
2018-04-24T03:33:01.404Z,1008.85
2018-04-24T03:33:27.558Z,1008.83
2018-04-24T03:33:53.700Z,1008.87
2018-04-24T03:34:19.839Z,1008.83
2018-04-24T03:34:45.974Z,1008.9
2018-04-24T03:35:12.131Z,1008.87
2018-04-24T03:35:38.270Z,1008.89
2018-04-24T03:36:04.408Z,1008.83
2018-04-24T03:36:30.550Z,1008.81
2018-04-24T03:36:56.686Z,1008.77
2018-04-24T03:37:22.849Z,1008.84
2018-04-24T03:37:48.996Z,1008.78
2018-04-24T03:38:15.128Z,1008.85
2018-04-24T03:38:41.322Z,1008.86
2018-04-24T03:39:07.456Z,1008.92
2018-04-24T03:39:33.601Z,1008.87
2018-04-24T03:39:59.765Z,1008.92
2018-04-24T03:40:25.897Z,1008.93
2018-04-24T03:40:52.061Z,1008.88
2018-04-24T03:41:18.195Z,1008.95
2018-04-24T03:41:44.333Z,1008.89
2018-04-24T03:42:10.474Z,1008.93
2018-04-24T03:42:36.621Z,1008.9
2018-04-24T03:43:02.756Z,1008.89
2018-04-24T03:43:28.919Z,1008.89
2018-04-24T03:43:55.032Z,1008.84
2018-04-24T03:44:21.192Z,1008.86
2018-04-24T03:44:47.326Z,1008.82
2018-04-24T03:45:13.470Z,1008.81
2018-04-24T03:45:39.608Z,1008.8
2018-04-24T03:46:05.746Z,1008.79
2018-04-24T03:46:31.879Z,1008.78
2018-04-24T03:46:58.037Z,1008.75
2018-04-24T03:47:24.203Z,1008.75
2018-04-24T03:47:50.340Z,1008.78
2018-04-24T03:48:16.478Z,1008.71
2018-04-24T03:48:42.619Z,1008.6
2018-04-24T03:49:08.781Z,1008.7
2018-04-24T03:49:34.920Z,1008.78
2018-04-24T03:50:01.077Z,1008.69
2018-04-24T03:50:27.240Z,1008.74
2018-04-24T03:50:53.383Z,1008.71
2018-04-24T03:51:19.524Z,1008.74
2018-04-24T03:51:45.664Z,1008.76
2018-04-24T03:52:11.801Z,1008.81
2018-04-24T03:52:37.941Z,1008.72
2018-04-24T03:53:04.084Z,1008.74
2018-04-24T03:53:30.222Z,1008.75
2018-04-24T03:53:56.383Z,1008.72
2018-04-24T03:54:22.530Z,1008.72
2018-04-24T03:54:48.666Z,1008.7
2018-04-24T03:55:14.805Z,1008.7
2018-04-24T03:55:40.946Z,1008.72
2018-04-24T03:56:07.089Z,1008.69
2018-04-24T03:56:33.221Z,1008.73
2018-04-24T03:56:59.368Z,1008.79
2018-04-24T03:57:25.525Z,1008.73
2018-04-24T03:57:51.663Z,1008.8
2018-04-24T03:58:17.847Z,1008.77
2018-04-24T03:58:44.006Z,1008.8
2018-04-24T03:59:10.136Z,1008.73
2018-04-24T03:59:36.280Z,1008.73
2018-04-24T04:00:02.415Z,1008.72
2018-04-24T04:00:28.558Z,1008.84
2018-04-24T04:00:54.691Z,1008.78
2018-04-24T04:01:20.835Z,1008.81
2018-04-24T04:01:46.978Z,1008.83
2018-04-24T04:02:13.114Z,1008.82
2018-04-24T04:02:39.256Z,1008.88
2018-04-24T04:03:05.392Z,1008.9
2018-04-24T04:03:31.527Z,1008.91
2018-04-24T04:03:57.657Z,1008.99
2018-04-24T04:04:23.830Z,1008.94
2018-04-24T04:04:49.983Z,1008.96
2018-04-24T04:05:16.122Z,1008.94
2018-04-24T04:05:42.258Z,1008.98
2018-04-24T04:06:08.389Z,1008.98
2018-04-24T04:06:34.557Z,1008.95
2018-04-24T04:07:00.724Z,1009.01
2018-04-24T04:07:26.917Z,1009
2018-04-24T04:07:53.052Z,1008.97
2018-04-24T04:08:19.196Z,1008.97
2018-04-24T04:08:45.359Z,1008.99
2018-04-24T04:09:11.504Z,1008.98
2018-04-24T04:09:37.646Z,1008.99
2018-04-24T04:10:03.819Z,1008.96
2018-04-24T04:10:29.958Z,1008.9
2018-04-24T04:10:56.095Z,1008.93
2018-04-24T04:11:22.234Z,1008.9
2018-04-24T04:11:48.378Z,1008.92
2018-04-24T04:12:14.540Z,1008.91
2018-04-24T04:12:40.703Z,1008.95
2018-04-24T04:13:06.858Z,1008.93
2018-04-24T04:13:32.998Z,1008.95
2018-04-24T04:13:59.142Z,1008.99
2018-04-24T04:14:25.312Z,1009
2018-04-24T04:14:51.448Z,1009.07
2018-04-24T04:15:17.588Z,1008.96
2018-04-24T04:15:43.730Z,1009.05
2018-04-24T04:16:09.903Z,1008.96
2018-04-24T04:16:36.036Z,1008.98
2018-04-24T04:17:02.167Z,1008.96
2018-04-24T04:17:28.310Z,1008.98
2018-04-24T04:17:54.443Z,1008.95
2018-04-24T04:18:20.580Z,1008.97
2018-04-24T04:18:46.716Z,1009
2018-04-24T04:19:12.881Z,1008.94
2018-04-24T04:19:39.018Z,1009.04
2018-04-24T04:20:05.155Z,1008.95
2018-04-24T04:20:31.297Z,1008.94
2018-04-24T04:20:57.440Z,1008.92
2018-04-24T04:21:23.580Z,1008.9
2018-04-24T04:21:49.718Z,1008.89
2018-04-24T04:22:15.863Z,1008.93
2018-04-24T04:22:42.000Z,1008.89
2018-04-24T04:23:08.143Z,1008.92
2018-04-24T04:23:34.285Z,1008.93
2018-04-24T04:24:00.423Z,1008.88
2018-04-24T04:24:26.555Z,1008.94
2018-04-24T04:24:52.693Z,1008.89
2018-04-24T04:25:18.832Z,1008.93
2018-04-24T04:25:44.975Z,1008.95
2018-04-24T04:26:11.112Z,1008.94
2018-04-24T04:26:37.252Z,1008.95
2018-04-24T04:27:03.388Z,1008.99
2018-04-24T04:27:29.533Z,1008.99
2018-04-24T04:27:55.678Z,1008.98
2018-04-24T04:28:21.813Z,1009.01
2018-04-24T04:28:47.950Z,1009
2018-04-24T04:29:14.096Z,1009.02
2018-04-24T04:29:40.254Z,1008.97
2018-04-24T04:30:06.396Z,1009.05
2018-04-24T04:30:32.532Z,1008.99
2018-04-24T04:30:58.673Z,1009
2018-04-24T04:31:24.832Z,1008.98
2018-04-24T04:31:50.972Z,1008.94
2018-04-24T04:32:17.137Z,1008.97
2018-04-24T04:32:43.299Z,1008.92
2018-04-24T04:33:09.433Z,1009.05
2018-04-24T04:33:35.576Z,1008.94
2018-04-24T04:34:01.736Z,1008.89
2018-04-24T04:34:27.886Z,1008.97
2018-04-24T04:34:54.023Z,1008.95
2018-04-24T04:35:20.157Z,1008.96
2018-04-24T04:35:46.299Z,1008.94
2018-04-24T04:36:12.435Z,1008.92
2018-04-24T04:36:38.599Z,1008.93
2018-04-24T04:37:04.731Z,1008.89
2018-04-24T04:37:30.888Z,1008.9
2018-04-24T04:37:57.013Z,1009.09
2018-04-24T04:38:23.158Z,1008.88
2018-04-24T04:38:49.294Z,1008.91
2018-04-24T04:39:15.439Z,1008.85
2018-04-24T04:39:41.567Z,1008.88
2018-04-24T04:40:07.707Z,1008.89
2018-04-24T04:40:33.841Z,1008.91
2018-04-24T04:40:59.983Z,1008.88
2018-04-24T04:41:26.228Z,1008.9
2018-04-24T04:41:52.286Z,1008.85
2018-04-24T04:42:18.423Z,1008.89
2018-04-24T04:42:44.562Z,1008.96
2018-04-24T04:43:10.791Z,1008.94
2018-04-24T04:43:36.923Z,1008.92
2018-04-24T04:44:03.073Z,1008.91
2018-04-24T04:44:29.210Z,1008.93
2018-04-24T04:44:55.349Z,1008.92
2018-04-24T04:45:21.482Z,1008.96
2018-04-24T04:45:47.665Z,1008.87
2018-04-24T04:46:13.811Z,1008.91
2018-04-24T04:46:39.946Z,1008.93
2018-04-24T04:47:06.087Z,1008.89
2018-04-24T04:47:32.236Z,1008.93
2018-04-24T04:47:58.376Z,1008.96
2018-04-24T04:48:24.515Z,1008.98
2018-04-24T04:48:50.683Z,1008.95
2018-04-24T04:49:16.816Z,1008.97
2018-04-24T04:49:42.982Z,1008.92
2018-04-24T04:50:09.122Z,1008.98
2018-04-24T04:50:35.252Z,1009.06
2018-04-24T04:51:01.403Z,1009
2018-04-24T04:51:27.541Z,1009.04
2018-04-24T04:51:53.681Z,1009.02
2018-04-24T04:52:19.813Z,1009.01
2018-04-24T04:52:45.958Z,1009.06
2018-04-24T04:53:12.155Z,1009.06
2018-04-24T04:53:38.295Z,1009.08
2018-04-24T04:54:04.458Z,1009.06
2018-04-24T04:54:30.602Z,1009.05
2018-04-24T04:54:56.741Z,1009.07
2018-04-24T04:55:22.904Z,1009.15
2018-04-24T04:55:49.038Z,1009.05
2018-04-24T04:56:15.187Z,1009.07
2018-04-24T04:56:41.329Z,1009.05
2018-04-24T04:57:07.471Z,1009.05
2018-04-24T04:57:33.607Z,1009.05
2018-04-24T04:57:59.745Z,1009.06
2018-04-24T04:58:25.884Z,1009.03
2018-04-24T04:58:52.022Z,1009.05
2018-04-24T04:59:18.163Z,1009.07
2018-04-24T04:59:44.299Z,1009.08
2018-04-24T05:00:10.439Z,1009.07
2018-04-24T05:00:36.576Z,1009.08
2018-04-24T05:01:02.744Z,1009.04
2018-04-24T05:01:28.902Z,1009.11
2018-04-24T05:01:55.048Z,1009.06
2018-04-24T05:02:21.182Z,1009.14
2018-04-24T05:02:47.327Z,1009.14
2018-04-24T05:03:13.504Z,1009.16
2018-04-24T05:03:39.644Z,1009.16
2018-04-24T05:04:05.788Z,1009.17
2018-04-24T05:04:31.928Z,1009.2
2018-04-24T05:04:58.079Z,1009.2
2018-04-24T05:05:24.215Z,1009.23
2018-04-24T05:05:50.356Z,1009.18
2018-04-24T05:06:16.542Z,1009.21
2018-04-24T05:06:42.706Z,1009.19
2018-04-24T05:07:08.846Z,1009.21
2018-04-24T05:07:34.988Z,1009.25
2018-04-24T05:08:01.143Z,1009.18
2018-04-24T05:08:27.285Z,1009.32
2018-04-24T05:08:53.455Z,1009.3
2018-04-24T05:09:19.589Z,1009.28
2018-04-24T05:09:45.721Z,1009.28
2018-04-24T05:10:11.872Z,1009.3
2018-04-24T05:10:38.009Z,1009.28
2018-04-24T05:11:04.169Z,1009.25
2018-04-24T05:11:30.306Z,1009.24
2018-04-24T05:11:56.536Z,1009.3
2018-04-24T05:12:22.618Z,1009.27
2018-04-24T05:12:48.758Z,1009.38
2018-04-24T05:13:14.901Z,1009.34
2018-04-24T05:13:41.043Z,1009.29
2018-04-24T05:14:07.181Z,1009.38
2018-04-24T05:14:33.330Z,1009.38
2018-04-24T05:14:59.498Z,1009.33
2018-04-24T05:15:25.634Z,1009.34
2018-04-24T05:15:51.776Z,1009.39
2018-04-24T05:16:17.939Z,1009.29
2018-04-24T05:16:44.084Z,1009.3
2018-04-24T05:17:10.267Z,1009.3
2018-04-24T05:17:36.378Z,1009.33